Time;durP1;ratioP1;P1;durP2;ratioP2;P2;SDS_P1;SDS_P2;PMS_P1;PMS_P2;Temp;Humidity;BMP_temperature;BMP_pressure;BME280_temperature;BME280_humidity;BME280_pressure;Samples;Min_cycle;Max_cycle;Signal;HPM_P1;HPM_P2
2023/08/26 00:00:36;;;;;;;2.72;1.67;;;;;;;;;;5070903;28;20072;-77
2023/08/26 00:03:02;;;;;;;3.60;1.77;;;;;;;;;;5077213;28;20043;-77
2023/08/26 00:05:28;;;;;;;2.70;1.70;;;;;;;;;;5072636;28;20048;-75
2023/08/26 00:07:54;;;;;;;2.80;1.67;;;;;;;;;;5025119;28;1118282;-78
2023/08/26 00:10:20;;;;;;;2.67;1.70;;;;;;;;;;5064354;28;20076;-78
2023/08/26 00:12:46;;;;;;;4.05;1.98;;;;;;;;;;5067701;28;20133;-78
2023/08/26 00:15:12;;;;;;;1.63;1.50;;;;;;;;;;5060147;28;21514;-77
2023/08/26 00:17:38;;;;;;;1.95;1.60;;;;;;;;;;5060438;28;20072;-77
2023/08/26 00:20:06;;;;;;;2.90;1.70;;;;;;;;;;5066388;28;20060;-77
2023/08/26 00:22:32;;;;;;;2.03;1.83;;;;;;;;;;5062881;28;20045;-78
2023/08/26 00:24:58;;;;;;;3.80;2.00;;;;;;;;;;5062130;28;20076;-78
2023/08/26 00:27:24;;;;;;;2.50;1.92;;;;;;;;;;5061502;28;20133;-77
2023/08/26 00:29:50;;;;;;;3.00;1.70;;;;;;;;;;5060822;28;20041;-77
2023/08/26 00:32:16;;;;;;;2.95;2.33;;;;;;;;;;5062605;28;20044;-78
2023/08/26 00:34:43;;;;;;;3.08;1.77;;;;;;;;;;5068695;28;20051;-78
2023/08/26 00:37:09;;;;;;;3.78;1.80;;;;;;;;;;5068761;28;20785;-77
2023/08/26 00:39:35;;;;;;;4.25;1.70;;;;;;;;;;5057728;28;20520;-78
2023/08/26 00:42:01;;;;;;;2.25;1.70;;;;;;;;;;5066275;28;20089;-80
2023/08/26 00:44:27;;;;;;;3.80;2.10;;;;;;;;;;5060068;28;20087;-80
2023/08/26 00:46:53;;;;;;;4.50;1.95;;;;;;;;;;5060818;28;20090;-78
2023/08/26 00:49:19;;;;;;;3.35;1.50;;;;;;;;;;5060053;28;20548;-78
2023/08/26 00:51:46;;;;;;;13.23;9.40;;;;;;;;;;5063108;28;20044;-78
2023/08/26 00:54:12;;;;;;;5.20;2.95;;;;;;;;;;5065527;28;20101;-80
2023/08/26 00:56:41;;;;;;;2.28;1.55;;;;;;;;;;5058180;28;20502;-80
2023/08/26 00:59:07;;;;;;;2.85;2.30;;;;;;;;;;5067599;28;20040;-81
2023/08/26 01:01:34;;;;;;;4.63;1.90;;;;;;;;;;5057778;28;20044;-79
2023/08/26 01:04:00;;;;;;;2.30;1.70;;;;;;;;;;5068794;28;20041;-80
2023/08/26 01:06:26;;;;;;;3.60;2.00;;;;;;;;;;5072024;28;20045;-80
2023/08/26 01:08:52;;;;;;;4.88;2.50;;;;;;;;;;5062148;28;20049;-79
2023/08/26 01:11:33;;;;;;;8.20;5.65;;;;;;;;;;5060104;28;20045;-79
2023/08/26 01:14:17;;;;;;;17.42;15.20;;;;;;;;;;5070631;28;20047;-79
2023/08/26 01:16:43;;;;;;;6.68;4.10;;;;;;;;;;5068779;28;20095;-79
2023/08/26 01:19:14;;;;;;;1.92;1.80;;;;;;;;;;5066122;28;20040;-80
2023/08/26 01:21:42;;;;;;;3.80;2.50;;;;;;;;;;5066227;28;20040;-80
2023/08/26 01:24:09;;;;;;;2.92;2.50;;;;;;;;;;5069793;28;20507;-79
2023/08/26 01:26:35;;;;;;;1.63;1.48;;;;;;;;;;5074987;28;20113;-80
2023/08/26 01:29:01;;;;;;;4.32;3.03;;;;;;;;;;5068056;28;20641;-78
2023/08/26 01:31:31;;;;;;;10.68;8.07;;;;;;;;;;5067813;28;20090;-78
2023/08/26 01:34:10;;;;;;;14.75;11.20;;;;;;;;;;5064625;28;20052;-77
2023/08/26 01:36:38;;;;;;;5.10;2.10;;;;;;;;;;5071839;28;20052;-77
2023/08/26 01:39:04;;;;;;;4.35;1.50;;;;;;;;;;5073171;28;20045;-78
2023/08/26 01:41:31;;;;;;;3.95;1.50;;;;;;;;;;5070128;28;20041;-78
2023/08/26 01:43:57;;;;;;;2.70;1.30;;;;;;;;;;5064131;28;20791;-78
2023/08/26 01:46:36;;;;;;;2.90;2.38;;;;;;;;;;5067358;28;20491;-77
2023/08/26 01:49:03;;;;;;;15.88;11.07;;;;;;;;;;5065963;28;20045;-80
2023/08/26 01:51:29;;;;;;;26.10;23.38;;;;;;;;;;5064046;28;20047;-80
2023/08/26 01:53:55;;;;;;;8.13;6.03;;;;;;;;;;5069311;28;20507;-80
2023/08/26 01:56:21;;;;;;;2.08;1.60;;;;;;;;;;5068451;28;20044;-80
2023/08/26 01:58:47;;;;;;;3.47;1.77;;;;;;;;;;5069977;28;20503;-78
2023/08/26 02:01:13;;;;;;;3.35;1.90;;;;;;;;;;5068078;28;20040;-77
2023/08/26 02:03:39;;;;;;;3.42;1.90;;;;;;;;;;5067850;28;20044;-78
2023/08/26 02:06:05;;;;;;;4.55;2.60;;;;;;;;;;5067618;28;20053;-78
2023/08/26 02:08:31;;;;;;;4.63;1.90;;;;;;;;;;5068849;28;20143;-78
2023/08/26 02:10:58;;;;;;;9.65;4.93;;;;;;;;;;5076939;28;20054;-77
2023/08/26 02:13:25;;;;;;;5.97;2.55;;;;;;;;;;5089102;28;20098;-78
2023/08/26 02:15:51;;;;;;;4.45;3.42;;;;;;;;;;5069037;28;20396;-77
2023/08/26 02:18:17;;;;;;;2.47;2.00;;;;;;;;;;5071309;28;20047;-78
2023/08/26 02:20:44;;;;;;;3.65;1.83;;;;;;;;;;5069519;28;20094;-78
2023/08/26 02:23:13;;;;;;;4.03;2.08;;;;;;;;;;5069944;28;20044;-78
2023/08/26 02:25:39;;;;;;;3.90;2.28;;;;;;;;;;5064035;28;20062;-78
2023/08/26 02:28:05;;;;;;;2.85;2.00;;;;;;;;;;5088815;28;20054;-78
2023/08/26 02:30:31;;;;;;;5.22;3.28;;;;;;;;;;5067942;28;20040;-78
2023/08/26 02:32:57;;;;;;;3.97;2.35;;;;;;;;;;5069810;28;20105;-78
2023/08/26 02:35:24;;;;;;;4.43;2.83;;;;;;;;;;5085528;28;20052;-78
2023/08/26 02:37:50;;;;;;;11.10;8.40;;;;;;;;;;5090408;28;20387;-78
2023/08/26 02:40:16;;;;;;;7.32;5.57;;;;;;;;;;5066337;28;20849;-78
2023/08/26 02:42:42;;;;;;;4.78;2.63;;;;;;;;;;5066625;28;20390;-78
2023/08/26 02:45:08;;;;;;;7.47;4.88;;;;;;;;;;5089768;28;20040;-78
2023/08/26 02:47:34;;;;;;;2.50;2.30;;;;;;;;;;5057939;28;20044;-78
2023/08/26 02:50:01;;;;;;;3.20;1.90;;;;;;;;;;5085782;28;20047;-78
2023/08/26 02:52:27;;;;;;;2.70;1.83;;;;;;;;;;5084809;28;20047;-78
2023/08/26 02:54:53;;;;;;;4.60;2.05;;;;;;;;;;5065357;28;20399;-78
2023/08/26 02:57:19;;;;;;;4.15;1.80;;;;;;;;;;5068690;28;20079;-78
2023/08/26 02:59:45;;;;;;;6.50;2.10;;;;;;;;;;5088033;28;20126;-78
2023/08/26 03:02:11;;;;;;;4.20;1.90;;;;;;;;;;5089769;28;20040;-78
2023/08/26 03:04:37;;;;;;;3.90;2.13;;;;;;;;;;5084041;28;20079;-78
2023/08/26 03:07:03;;;;;;;6.50;2.00;;;;;;;;;;5070517;28;20469;-79
2023/08/26 03:09:29;;;;;;;3.10;1.90;;;;;;;;;;5067689;28;20136;-78
2023/08/26 03:11:56;;;;;;;4.97;2.05;;;;;;;;;;5070591;28;20062;-80
2023/08/26 03:14:22;;;;;;;6.38;1.90;;;;;;;;;;5073292;28;20044;-81
2023/08/26 03:16:48;;;;;;;2.70;2.03;;;;;;;;;;5070781;28;20042;-80
2023/08/26 03:19:14;;;;;;;2.50;2.03;;;;;;;;;;5070959;28;20036;-79
2023/08/26 03:21:40;;;;;;;3.35;2.20;;;;;;;;;;5083304;28;20051;-80
2023/08/26 03:24:07;;;;;;;4.00;2.30;;;;;;;;;;5071803;28;20137;-80
2023/08/26 03:26:33;;;;;;;3.90;2.30;;;;;;;;;;5087743;28;20048;-80
2023/08/26 03:28:59;;;;;;;3.10;2.13;;;;;;;;;;5070989;28;20468;-80
2023/08/26 03:31:25;;;;;;;4.93;2.28;;;;;;;;;;5071610;28;20079;-80
2023/08/26 03:33:51;;;;;;;2.30;2.10;;;;;;;;;;5089394;28;20056;-80
2023/08/26 03:36:17;;;;;;;2.78;2.00;;;;;;;;;;5089489;28;20549;-80
2023/08/26 03:38:46;;;;;;;5.28;2.30;;;;;;;;;;5069359;28;20059;-81
2023/08/26 03:41:13;;;;;;;3.63;2.13;;;;;;;;;;5090574;28;20044;-81
2023/08/26 03:43:39;;;;;;;5.40;2.20;;;;;;;;;;5086993;28;20040;-81
2023/08/26 03:46:05;;;;;;;3.58;1.90;;;;;;;;;;5069536;28;20047;-80
2023/08/26 03:48:31;;;;;;;5.65;2.63;;;;;;;;;;5069740;28;20086;-81
2023/08/26 03:50:58;;;;;;;4.28;2.40;;;;;;;;;;5085957;28;20083;-81
2023/08/26 03:53:24;;;;;;;3.30;2.45;;;;;;;;;;5071200;28;20078;-81
2023/08/26 03:55:51;;;;;;;4.93;2.40;;;;;;;;;;5087076;28;20036;-80
2023/08/26 03:58:18;;;;;;;2.40;2.15;;;;;;;;;;5087338;28;20138;-80
2023/08/26 04:00:44;;;;;;;3.30;2.40;;;;;;;;;;5068951;28;20112;-81
2023/08/26 04:03:10;;;;;;;3.97;2.28;;;;;;;;;;5096158;28;20361;-80
2023/08/26 04:05:36;;;;;;;5.18;2.60;;;;;;;;;;5068783;28;20476;-80
2023/08/26 04:08:03;;;;;;;2.72;2.22;;;;;;;;;;5074359;28;20407;-80
2023/08/26 04:10:29;;;;;;;3.80;2.30;;;;;;;;;;5076488;28;20047;-80
2023/08/26 04:13:15;;;;;;;6.13;2.92;;;;;;;;;;5084834;28;20059;-80
2023/08/26 04:15:42;;;;;;;5.57;2.70;;;;;;;;;;5065600;28;20047;-80
2023/08/26 04:18:08;;;;;;;5.15;2.50;;;;;;;;;;5084070;28;20699;-79
2023/08/26 04:20:34;;;;;;;6.32;3.15;;;;;;;;;;5087540;28;20047;-80
2023/08/26 04:23:00;;;;;;;5.00;3.15;;;;;;;;;;5071886;28;20535;-82
2023/08/26 04:25:26;;;;;;;6.40;3.65;;;;;;;;;;5069796;28;20040;-80
2023/08/26 04:27:52;;;;;;;4.65;3.65;;;;;;;;;;5089184;28;20036;-80
2023/08/26 04:30:18;;;;;;;6.20;4.05;;;;;;;;;;5084393;28;20094;-81
2023/08/26 04:32:45;;;;;;;6.80;3.67;;;;;;;;;;5064990;28;20047;-81
2023/08/26 04:35:11;;;;;;;6.53;4.45;;;;;;;;;;5084256;28;20052;-80
2023/08/26 04:37:37;;;;;;;5.55;3.53;;;;;;;;;;5083351;28;20463;-81
2023/08/26 04:40:36;;;;;;;7.25;3.75;;;;;;;;;;5090561;28;20060;-80
2023/08/26 04:42:59;;;;;;;6.25;3.85;;;;;;;;;;5072829;28;20403;-81
2023/08/26 04:45:25;;;;;;;5.18;3.85;;;;;;;;;;5089668;28;20055;-81
2023/08/26 04:47:51;;;;;;;5.75;4.05;;;;;;;;;;5072109;28;20058;-80
2023/08/26 04:50:17;;;;;;;4.43;4.00;;;;;;;;;;5070072;28;20051;-81
2023/08/26 04:52:43;;;;;;;8.52;4.10;;;;;;;;;;5092364;28;20515;-81
2023/08/26 04:55:10;;;;;;;5.80;4.28;;;;;;;;;;5073584;28;20135;-81
2023/08/26 04:57:36;;;;;;;6.50;4.03;;;;;;;;;;5079189;28;20054;-81
2023/08/26 05:00:06;;;;;;;6.20;4.20;;;;;;;;;;5076480;28;20055;-82
2023/08/26 05:02:32;;;;;;;7.90;4.25;;;;;;;;;;5091282;28;20122;-81
2023/08/26 05:04:58;;;;;;;4.82;3.90;;;;;;;;;;5082205;28;20143;-80
2023/08/26 05:07:24;;;;;;;7.45;4.35;;;;;;;;;;5090454;28;20398;-81
2023/08/26 05:09:50;;;;;;;5.28;4.30;;;;;;;;;;5073191;28;20051;-82
2023/08/26 05:12:16;;;;;;;8.90;4.13;;;;;;;;;;5088225;28;20089;-81
2023/08/26 05:14:42;;;;;;;5.38;3.90;;;;;;;;;;5094369;28;20521;-81
2023/08/26 05:17:08;;;;;;;8.70;4.50;;;;;;;;;;5078234;28;20047;-81
2023/08/26 05:19:34;;;;;;;7.32;4.60;;;;;;;;;;5068722;28;20048;-81
2023/08/26 05:22:02;;;;;;;7.43;4.25;;;;;;;;;;5074449;28;20123;-81
2023/08/26 05:24:30;;;;;;;7.80;4.78;;;;;;;;;;5073232;28;20048;-80
2023/08/26 05:26:57;;;;;;;8.15;5.47;;;;;;;;;;5074300;28;20051;-81
2023/08/26 05:29:23;;;;;;;5.82;4.47;;;;;;;;;;5089214;28;20036;-82
2023/08/26 05:31:49;;;;;;;9.63;5.28;;;;;;;;;;5084649;28;20108;-81
2023/08/26 05:34:15;;;;;;;7.38;5.80;;;;;;;;;;5086745;28;20052;-81
2023/08/26 05:36:41;;;;;;;11.32;6.20;;;;;;;;;;5081318;28;20431;-81
2023/08/26 05:39:07;;;;;;;8.57;5.80;;;;;;;;;;5082845;28;20044;-81
2023/08/26 05:41:33;;;;;;;7.35;5.50;;;;;;;;;;5083809;28;20036;-80
2023/08/26 05:43:59;;;;;;;8.48;5.60;;;;;;;;;;5068234;28;20484;-81
2023/08/26 05:46:25;;;;;;;7.63;5.78;;;;;;;;;;5068371;28;20042;-82
2023/08/26 05:48:51;;;;;;;7.78;5.80;;;;;;;;;;5067318;28;21397;-81
2023/08/26 05:51:17;;;;;;;9.07;5.15;;;;;;;;;;5079768;28;20054;-81
2023/08/26 05:53:49;;;;;;;7.13;5.07;;;;;;;;;;5073325;28;20121;-81
2023/08/26 05:56:15;;;;;;;8.20;5.80;;;;;;;;;;5088682;28;20062;-80
2023/08/26 05:58:41;;;;;;;6.97;5.00;;;;;;;;;;5072300;28;20495;-81
2023/08/26 06:01:07;;;;;;;6.78;5.47;;;;;;;;;;5068775;28;20082;-81
2023/08/26 06:03:33;;;;;;;9.35;5.85;;;;;;;;;;5089627;28;20080;-81
2023/08/26 06:05:59;;;;;;;8.38;5.78;;;;;;;;;;5080924;28;20059;-81
2023/08/26 06:08:25;;;;;;;7.30;5.20;;;;;;;;;;5084454;28;20056;-82
2023/08/26 06:10:55;;;;;;;8.60;5.05;;;;;;;;;;5087650;28;20654;-82
2023/08/26 06:13:21;;;;;;;6.88;4.75;;;;;;;;;;5082150;28;20492;-82
2023/08/26 06:15:57;;;;;;;6.38;5.18;;;;;;;;;;5069362;28;20042;-81
2023/08/26 06:18:24;;;;;;;7.35;5.97;;;;;;;;;;5069332;28;20525;-82
2023/08/26 06:20:50;;;;;;;7.85;5.82;;;;;;;;;;5068960;28;20564;-81
2023/08/26 06:23:17;;;;;;;10.30;6.20;;;;;;;;;;5071782;28;20081;-82
2023/08/26 06:25:56;;;;;;;9.02;6.32;;;;;;;;;;5072539;28;20109;-82
2023/08/26 06:28:22;;;;;;;9.30;6.28;;;;;;;;;;5070540;28;20042;-82
2023/08/26 06:30:48;;;;;;;10.13;6.35;;;;;;;;;;5072474;28;20471;-82
2023/08/26 06:33:14;;;;;;;7.22;6.13;;;;;;;;;;5069739;28;20609;-82
2023/08/26 06:35:41;;;;;;;9.88;6.40;;;;;;;;;;5071168;28;20369;-82
2023/08/26 06:38:07;;;;;;;9.27;6.07;;;;;;;;;;5065394;28;20483;-82
2023/08/26 06:40:34;;;;;;;9.05;5.80;;;;;;;;;;5068920;28;20079;-82
2023/08/26 06:43:02;;;;;;;8.48;6.38;;;;;;;;;;5071338;28;20048;-79
2023/08/26 06:45:28;;;;;;;8.40;6.22;;;;;;;;;;5090426;28;20048;-79
2023/08/26 06:47:55;;;;;;;6.43;5.13;;;;;;;;;;5069817;28;20718;-79
2023/08/26 06:50:21;;;;;;;7.47;5.32;;;;;;;;;;5087120;28;20063;-80
2023/08/26 06:52:49;;;;;;;4.82;4.30;;;;;;;;;;5089646;28;20458;-79
2023/08/26 06:55:15;;;;;;;4.68;4.18;;;;;;;;;;5063453;28;20063;-80
2023/08/26 06:57:41;;;;;;;7.35;4.50;;;;;;;;;;5085820;28;20487;-79
2023/08/26 07:00:11;;;;;;;6.63;4.90;;;;;;;;;;5072862;28;20058;-79
2023/08/26 07:02:37;;;;;;;6.78;5.30;;;;;;;;;;5072712;28;20040;-79
2023/08/26 07:05:03;;;;;;;8.23;6.00;;;;;;;;;;5073105;28;20044;-79
2023/08/26 07:07:29;;;;;;;9.23;5.70;;;;;;;;;;5069704;28;20047;-79
2023/08/26 07:09:56;;;;;;;9.55;5.68;;;;;;;;;;5071156;28;20055;-79
2023/08/26 07:12:22;;;;;;;7.78;6.10;;;;;;;;;;5087824;28;20044;-79
2023/08/26 07:14:48;;;;;;;9.00;6.63;;;;;;;;;;5090464;28;20055;-79
2023/08/26 07:17:17;;;;;;;8.88;6.65;;;;;;;;;;5072398;28;20151;-79
2023/08/26 07:19:43;;;;;;;10.38;7.45;;;;;;;;;;5087129;28;20093;-79
2023/08/26 07:22:10;;;;;;;8.60;7.50;;;;;;;;;;5071400;28;20135;-79
2023/08/26 07:24:37;;;;;;;11.95;6.50;;;;;;;;;;5071442;28;20059;-79
2023/08/26 07:27:03;;;;;;;11.32;7.10;;;;;;;;;;5086350;28;20071;-78
2023/08/26 07:29:31;;;;;;;13.27;7.35;;;;;;;;;;5069206;28;20377;-78
2023/08/26 07:31:57;;;;;;;11.63;4.70;;;;;;;;;;5067176;28;20051;-80
2023/08/26 07:34:24;;;;;;;9.00;4.10;;;;;;;;;;5069320;28;20399;-79
2023/08/26 07:36:50;;;;;;;10.90;4.35;;;;;;;;;;5072147;28;20353;-78
2023/08/26 07:39:16;;;;;;;8.77;3.10;;;;;;;;;;5091406;28;20050;-79
2023/08/26 07:41:42;;;;;;;11.57;3.22;;;;;;;;;;5073901;28;20178;-79
2023/08/26 07:44:08;;;;;;;11.20;3.35;;;;;;;;;;5072610;28;20130;-79
2023/08/26 07:46:34;;;;;;;9.07;3.22;;;;;;;;;;5089037;28;20036;-79
2023/08/26 07:49:00;;;;;;;10.60;2.70;;;;;;;;;;5089337;28;20051;-79
2023/08/26 07:51:26;;;;;;;10.90;4.25;;;;;;;;;;5085918;28;20044;-78
2023/08/26 07:53:52;;;;;;;14.93;5.03;;;;;;;;;;5061131;28;20063;-79
2023/08/26 07:56:18;;;;;;;9.90;3.60;;;;;;;;;;5091373;28;20083;-78
2023/08/26 07:58:44;;;;;;;14.32;3.50;;;;;;;;;;5084673;28;20063;-77
2023/08/26 08:01:10;;;;;;;6.43;2.78;;;;;;;;;;5084072;28;20506;-80
2023/08/26 08:03:37;;;;;;;6.90;3.03;;;;;;;;;;5084165;28;20047;-79
2023/08/26 08:06:03;;;;;;;6.03;3.03;;;;;;;;;;5070183;28;20044;-79
2023/08/26 08:08:31;;;;;;;5.63;2.35;;;;;;;;;;5064742;28;20060;-79
2023/08/26 08:10:57;;;;;;;5.40;2.20;;;;;;;;;;5066932;28;20044;-80
2023/08/26 08:13:23;;;;;;;2.67;2.00;;;;;;;;;;5089413;28;20048;-79
2023/08/26 08:15:49;;;;;;;3.35;1.90;;;;;;;;;;5064771;28;20047;-79
2023/08/26 08:18:16;;;;;;;2.00;1.65;;;;;;;;;;5069195;28;20165;-79
2023/08/26 08:20:42;;;;;;;3.17;1.70;;;;;;;;;;5072365;28;20127;-79
2023/08/26 08:23:08;;;;;;;3.60;2.10;;;;;;;;;;5075744;28;20102;-78
2023/08/26 08:25:34;;;;;;;4.97;1.85;;;;;;;;;;5073843;28;20496;-80
2023/08/26 08:28:02;;;;;;;6.43;2.05;;;;;;;;;;5072498;28;20499;-79
2023/08/26 08:30:28;;;;;;;3.20;1.77;;;;;;;;;;5092238;28;20468;-79
2023/08/26 08:32:54;;;;;;;5.43;1.77;;;;;;;;;;5067279;28;20068;-80
2023/08/26 08:35:20;;;;;;;2.33;1.70;;;;;;;;;;5074537;28;20052;-79
2023/08/26 08:37:46;;;;;;;2.58;1.63;;;;;;;;;;5072078;28;20048;-78
2023/08/26 08:40:13;;;;;;;3.60;1.90;;;;;;;;;;5074794;28;20044;-77
2023/08/26 08:42:42;;;;;;;3.03;1.80;;;;;;;;;;5092627;28;20385;-78
2023/08/26 08:45:09;;;;;;;7.40;2.60;;;;;;;;;;5091077;28;20130;-78
2023/08/26 08:47:35;;;;;;;4.03;3.22;;;;;;;;;;5092613;28;20036;-77
2023/08/26 08:50:02;;;;;;;3.90;2.20;;;;;;;;;;5070776;28;20046;-78
2023/08/26 08:52:29;;;;;;;2.63;1.98;;;;;;;;;;5075879;28;20047;-78
2023/08/26 08:54:55;;;;;;;3.60;2.13;;;;;;;;;;5075490;28;20047;-78
2023/08/26 08:57:23;;;;;;;5.57;2.20;;;;;;;;;;5073915;28;20040;-78
2023/08/26 08:59:49;;;;;;;12.48;3.13;;;;;;;;;;5090214;28;20036;-78
2023/08/26 09:02:15;;;;;;;2.85;2.42;;;;;;;;;;5072116;28;20084;-79
2023/08/26 09:04:42;;;;;;;5.07;2.30;;;;;;;;;;5073402;28;20044;-78
2023/08/26 09:07:11;;;;;;;4.65;2.33;;;;;;;;;;5068517;28;20062;-78
2023/08/26 09:09:37;;;;;;;8.63;2.85;;;;;;;;;;5091838;28;20056;-78
2023/08/26 09:12:05;;;;;;;5.68;3.17;;;;;;;;;;5071270;28;20187;-79
2023/08/26 09:14:31;;;;;;;6.90;3.42;;;;;;;;;;5080959;28;20430;-78
2023/08/26 09:17:00;;;;;;;8.80;4.00;;;;;;;;;;5073907;28;20040;-78
2023/08/26 09:19:26;;;;;;;16.60;10.77;;;;;;;;;;5072869;28;20052;-78
2023/08/26 09:21:53;;;;;;;9.38;5.75;;;;;;;;;;5093160;28;20370;-79
2023/08/26 09:24:21;;;;;;;5.88;4.38;;;;;;;;;;5087248;28;20416;-79
2023/08/26 09:27:00;;;;;;;9.52;5.70;;;;;;;;;;5084636;28;20540;-79
2023/08/26 09:29:26;;;;;;;5.93;4.20;;;;;;;;;;5093151;28;20118;-79
2023/08/26 09:31:59;;;;;;;8.65;4.88;;;;;;;;;;5072182;28;20127;-78
2023/08/26 09:34:28;;;;;;;6.60;4.63;;;;;;;;;;5076517;28;20057;-78
2023/08/26 09:36:54;;;;;;;9.43;4.88;;;;;;;;;;5088408;28;20109;-78
2023/08/26 09:39:21;;;;;;;9.20;5.55;;;;;;;;;;5075665;28;20502;-78
2023/08/26 09:41:48;;;;;;;9.55;5.60;;;;;;;;;;5068254;28;20081;-79
2023/08/26 09:44:15;;;;;;;5.63;4.53;;;;;;;;;;5071827;28;20040;-77
2023/08/26 09:46:42;;;;;;;4.07;3.47;;;;;;;;;;5070351;28;20040;-79
2023/08/26 09:49:15;;;;;;;4.43;3.40;;;;;;;;;;5074427;28;20138;-78
2023/08/26 09:51:47;;;;;;;4.20;2.15;;;;;;;;;;5092501;28;20071;-78
2023/08/26 09:54:17;;;;;;;2.92;1.90;;;;;;;;;;5087162;28;20048;-78
2023/08/26 09:56:45;;;;;;;1.88;1.73;;;;;;;;;;5079517;28;20040;-79
2023/08/26 09:59:11;;;;;;;2.13;1.83;;;;;;;;;;5078809;28;20562;-78
2023/08/26 10:01:38;;;;;;;2.70;1.95;;;;;;;;;;5070808;28;20487;-78
2023/08/26 10:04:04;;;;;;;15.65;3.67;;;;;;;;;;5090811;28;20044;-78
2023/08/26 10:06:32;;;;;;;4.32;2.50;;;;;;;;;;5096710;28;20052;-79
2023/08/26 10:09:01;;;;;;;3.58;2.17;;;;;;;;;;5091953;28;20052;-78
2023/08/26 10:11:29;;;;;;;3.10;2.38;;;;;;;;;;5074435;28;20068;-78
2023/08/26 10:13:55;;;;;;;6.35;2.53;;;;;;;;;;5068974;28;20047;-79
2023/08/26 10:16:23;;;;;;;3.88;2.58;;;;;;;;;;5067439;28;20081;-79
2023/08/26 10:18:51;;;;;;;11.13;7.20;;;;;;;;;;5090700;28;20048;-78
2023/08/26 10:21:17;;;;;;;4.93;3.00;;;;;;;;;;5091897;28;20097;-79
2023/08/26 10:23:44;;;;;;;5.45;2.72;;;;;;;;;;5072642;28;20540;-78
2023/08/26 10:26:10;;;;;;;5.70;2.83;;;;;;;;;;5073741;28;20047;-78
2023/08/26 10:28:37;;;;;;;4.32;2.90;;;;;;;;;;5073971;28;20050;-78
2023/08/26 10:31:09;;;;;;;5.10;2.30;;;;;;;;;;5079150;28;20436;-79
2023/08/26 10:33:53;;;;;;;5.25;2.90;;;;;;;;;;5088915;28;20142;-78
2023/08/26 10:36:22;;;;;;;4.15;2.60;;;;;;;;;;5071071;28;20044;-77
2023/08/26 10:38:56;;;;;;;3.00;2.50;;;;;;;;;;5072013;28;20032;-78
2023/08/26 10:41:22;;;;;;;2.85;2.60;;;;;;;;;;5074790;28;20055;-79
2023/08/26 10:43:52;;;;;;;3.10;2.70;;;;;;;;;;5081828;28;20069;-78
2023/08/26 10:46:18;;;;;;;3.72;2.83;;;;;;;;;;5088820;28;20044;-79
2023/08/26 10:48:55;;;;;;;4.93;3.08;;;;;;;;;;5083184;28;20055;-78
2023/08/26 10:51:21;;;;;;;4.18;2.85;;;;;;;;;;5088189;28;20043;-78
2023/08/26 10:53:48;;;;;;;5.15;2.90;;;;;;;;;;5090359;28;20040;-78
2023/08/26 10:56:18;;;;;;;3.70;2.78;;;;;;;;;;5074315;28;20128;-78
2023/08/26 10:58:47;;;;;;;4.22;2.70;;;;;;;;;;5092815;28;20070;-79
2023/08/26 11:01:16;;;;;;;7.47;2.63;;;;;;;;;;5074178;28;20050;-79
2023/08/26 11:03:44;;;;;;;4.75;2.10;;;;;;;;;;5080553;28;20041;-78
2023/08/26 11:06:13;;;;;;;4.63;2.17;;;;;;;;;;5072909;28;20048;-78
2023/08/26 11:08:45;;;;;;;4.00;1.70;;;;;;;;;;5087591;28;20404;-79
2023/08/26 11:11:12;;;;;;;1.77;1.63;;;;;;;;;;5091399;28;20415;-78
2023/08/26 11:13:41;;;;;;;1.88;1.63;;;;;;;;;;5086060;28;20147;-78
2023/08/26 11:16:10;;;;;;;4.43;2.50;;;;;;;;;;5072120;28;20111;-78
2023/08/26 11:18:36;;;;;;;2.97;1.80;;;;;;;;;;5095666;28;20196;-78
2023/08/26 11:21:05;;;;;;;5.20;2.13;;;;;;;;;;5070817;28;20111;-78
2023/08/26 11:23:32;;;;;;;4.70;2.15;;;;;;;;;;5072569;28;20048;-78
2023/08/26 11:25:58;;;;;;;4.95;2.35;;;;;;;;;;5071518;28;20043;-78
2023/08/26 11:28:26;;;;;;;3.75;2.40;;;;;;;;;;5090086;28;20048;-79
2023/08/26 11:30:52;;;;;;;4.07;2.45;;;;;;;;;;5082451;28;20094;-77
2023/08/26 11:33:20;;;;;;;4.30;2.38;;;;;;;;;;5071325;28;20046;-77
2023/08/26 11:35:47;;;;;;;4.97;2.55;;;;;;;;;;5070903;28;20050;-78
2023/08/26 11:38:14;;;;;;;3.00;1.95;;;;;;;;;;5081880;28;20502;-80
2023/08/26 11:40:41;;;;;;;7.30;2.42;;;;;;;;;;5089891;28;20093;-78
2023/08/26 11:43:10;;;;;;;4.10;2.25;;;;;;;;;;5074553;28;20046;-79
2023/08/26 11:45:38;;;;;;;4.75;2.28;;;;;;;;;;5070654;28;20386;-78
2023/08/26 11:48:04;;;;;;;4.63;2.08;;;;;;;;;;5071832;28;20054;-79
2023/08/26 11:50:32;;;;;;;5.97;2.60;;;;;;;;;;5071903;28;20047;-78
2023/08/26 11:53:01;;;;;;;5.13;3.13;;;;;;;;;;5070377;28;20050;-78
2023/08/26 11:55:28;;;;;;;7.50;3.85;;;;;;;;;;5067162;28;20071;-78
2023/08/26 11:57:54;;;;;;;4.32;3.15;;;;;;;;;;5092162;28;20044;-79
2023/08/26 12:00:20;;;;;;;4.80;3.20;;;;;;;;;;5079846;28;20048;-78
2023/08/26 12:02:47;;;;;;;3.92;2.85;;;;;;;;;;5069501;28;20114;-78
2023/08/26 12:05:16;;;;;;;6.40;2.47;;;;;;;;;;5070028;28;20124;-77
2023/08/26 12:07:46;;;;;;;3.75;2.10;;;;;;;;;;5089902;28;20093;-79
2023/08/26 12:10:12;;;;;;;3.70;2.33;;;;;;;;;;5070672;28;20399;-78
2023/08/26 12:12:39;;;;;;;3.08;2.53;;;;;;;;;;5054420;28;20044;-78
2023/08/26 12:15:06;;;;;;;3.05;2.38;;;;;;;;;;5084332;28;20059;-79
2023/08/26 12:17:33;;;;;;;3.63;2.20;;;;;;;;;;5080277;28;20090;-78
2023/08/26 12:19:59;;;;;;;2.08;1.60;;;;;;;;;;5088181;28;20048;-78
2023/08/26 12:22:25;;;;;;;2.78;1.63;;;;;;;;;;5089068;28;20462;-79
2023/08/26 12:24:56;;;;;;;4.18;1.67;;;;;;;;;;5071631;28;20476;-78
2023/08/26 12:27:22;;;;;;;2.72;1.83;;;;;;;;;;5089436;28;20441;-79
2023/08/26 12:29:48;;;;;;;4.03;2.00;;;;;;;;;;5070989;28;20452;-78
2023/08/26 12:32:14;;;;;;;3.58;2.30;;;;;;;;;;5063987;28;20151;-77
2023/08/26 12:34:40;;;;;;;3.28;2.00;;;;;;;;;;5086355;28;20135;-78
2023/08/26 12:37:15;;;;;;;3.92;2.63;;;;;;;;;;5090339;28;20079;-78
2023/08/26 12:39:41;;;;;;;4.22;2.90;;;;;;;;;;5090729;28;20040;-78
2023/08/26 12:42:07;;;;;;;3.60;2.70;;;;;;;;;;5090043;28;20036;-78
2023/08/26 12:44:33;;;;;;;3.35;2.88;;;;;;;;;;5070483;28;20051;-78
2023/08/26 12:46:59;;;;;;;4.88;2.75;;;;;;;;;;5085900;28;20518;-78
2023/08/26 12:49:25;;;;;;;3.47;2.65;;;;;;;;;;5078561;28;20667;-79
2023/08/26 12:51:51;;;;;;;5.45;2.53;;;;;;;;;;5078135;28;20044;-79
2023/08/26 12:54:17;;;;;;;4.57;2.65;;;;;;;;;;5071151;28;20170;-79
2023/08/26 12:56:43;;;;;;;2.40;1.95;;;;;;;;;;5089659;28;20123;-77
2023/08/26 12:59:11;;;;;;;2.75;1.80;;;;;;;;;;5072912;28;20131;-77
2023/08/26 13:01:37;;;;;;;4.18;2.30;;;;;;;;;;5081483;28;20059;-78
2023/08/26 13:04:04;;;;;;;4.05;1.80;;;;;;;;;;5074837;28;20039;-78
2023/08/26 13:06:30;;;;;;;5.30;2.05;;;;;;;;;;5058135;28;20052;-78
2023/08/26 13:08:56;;;;;;;5.72;1.83;;;;;;;;;;5075915;28;20151;-77
2023/08/26 13:11:22;;;;;;;4.70;1.90;;;;;;;;;;5094407;28;20121;-78
2023/08/26 13:13:50;;;;;;;3.45;1.80;;;;;;;;;;5090813;28;20040;-82
2023/08/26 13:16:16;;;;;;;4.05;1.80;;;;;;;;;;5092713;28;20052;-77
2023/08/26 13:18:43;;;;;;;4.93;1.98;;;;;;;;;;5073099;28;20044;-77
2023/08/26 13:21:09;;;;;;;4.60;2.20;;;;;;;;;;5091815;28;20044;-81
2023/08/26 13:23:36;;;;;;;5.18;1.90;;;;;;;;;;5062587;28;20052;-77
2023/08/26 13:26:02;;;;;;;4.82;2.00;;;;;;;;;;5094767;28;20127;-77
2023/08/26 13:28:28;;;;;;;7.05;1.80;;;;;;;;;;5074971;28;20052;-76
2023/08/26 13:30:56;;;;;;;3.95;1.70;;;;;;;;;;5089171;28;20055;-77
2023/08/26 13:33:23;;;;;;;3.25;1.90;;;;;;;;;;5092223;28;20048;-77
2023/08/26 13:35:49;;;;;;;2.45;2.00;;;;;;;;;;5092138;28;20060;-77
2023/08/26 13:38:15;;;;;;;4.25;1.85;;;;;;;;;;5070490;28;20036;-77
2023/08/26 13:40:41;;;;;;;4.20;2.08;;;;;;;;;;5077705;28;20048;-77
2023/08/26 13:43:07;;;;;;;4.78;2.00;;;;;;;;;;5083338;28;20036;-77
2023/08/26 13:45:33;;;;;;;2.85;1.80;;;;;;;;;;5071023;28;20042;-77
2023/08/26 13:47:59;;;;;;;3.95;1.83;;;;;;;;;;5074495;28;20131;-78
2023/08/26 13:50:25;;;;;;;2.53;1.50;;;;;;;;;;5072705;28;20123;-78
2023/08/26 13:52:51;;;;;;;2.40;1.50;;;;;;;;;;5087225;28;20036;-77
2023/08/26 13:55:17;;;;;;;2.47;1.40;;;;;;;;;;5089943;28;20060;-77
2023/08/26 13:57:43;;;;;;;1.95;1.60;;;;;;;;;;5070230;28;20081;-78
2023/08/26 14:00:09;;;;;;;2.25;1.50;;;;;;;;;;5092618;28;20047;-77
2023/08/26 14:02:36;;;;;;;2.15;1.40;;;;;;;;;;5067476;28;20041;-76
2023/08/26 14:05:02;;;;;;;1.85;1.50;;;;;;;;;;5076913;28;20048;-78
2023/08/26 14:07:31;;;;;;;1.98;1.42;;;;;;;;;;5075337;28;20097;-77
2023/08/26 14:09:57;;;;;;;1.90;1.70;;;;;;;;;;5072349;28;20079;-77
2023/08/26 14:12:23;;;;;;;2.55;1.70;;;;;;;;;;5074817;28;20068;-76
2023/08/26 14:14:49;;;;;;;2.92;1.70;;;;;;;;;;5072246;28;20039;-77
2023/08/26 14:17:15;;;;;;;3.08;1.50;;;;;;;;;;5075204;28;20086;-76
2023/08/26 14:19:41;;;;;;;1.42;1.33;;;;;;;;;;5077067;28;20048;-77
2023/08/26 14:22:07;;;;;;;2.35;1.50;;;;;;;;;;5066657;28;20499;-85
2023/08/26 14:24:35;;;;;;;3.28;1.70;;;;;;;;;;5091985;28;20059;-83
2023/08/26 14:27:01;;;;;;;4.53;1.70;;;;;;;;;;5066402;28;20048;-77
2023/08/26 14:29:27;;;;;;;2.78;1.60;;;;;;;;;;5091059;28;20040;-79
2023/08/26 14:31:53;;;;;;;1.50;1.40;;;;;;;;;;5072468;28;20043;-77
2023/08/26 14:34:19;;;;;;;1.77;1.40;;;;;;;;;;5095677;28;20051;-79
2023/08/26 14:36:45;;;;;;;2.83;1.40;;;;;;;;;;5072231;28;20040;-79
2023/08/26 14:39:13;;;;;;;2.95;1.70;;;;;;;;;;5068956;28;20048;-80